Latest  Newer  Older  Last 2 hours slideshow  Last 24 hours slideshow  Refresh every 5 minutes 
Current image  Latest image  Rain/snow radar  Cloud coverage sat images 

All time is UTC (add 2 hours to UTC in wintertime, 3 hours to UTC in DST for Latvia local time)

2020/07/13 23:20 EVRA 132320Z 25003KT 200V290 CAVOK 12/10 Q1017 NOSIG
2020/07/13 23:20 EVLA 132320Z AUTO VRB02KT 9999 BR FEW010/// 11/10 Q1017
2020/07/13 23:20 EVVA 132320Z AUTO 16004KT 8000 FEW034 SCT048 12/12 Q1016
2020/07/13 23:20 EYKA 132320Z AUTO 28005KT 9999 NCD 11/08 Q1018
2020/07/13 23:20 EYPA 132320Z AUTO 24003KT 180V290 9999 SCT013/// 15/12 Q1018
2020/07/13 23:20 EYSA 132320Z AUTO 27005KT 9999NDV NCD 11/09 Q1018
2020/07/13 23:20 EYVI 132320Z VRB02KT CAVOK 12/10 Q1018 NOSIG
2020/07/13 14:50 EEKA 131450Z 29008KT 240V330 9999 FEW023 17/11 Q1015
2020/07/13 22:50 EEKE 132250Z AUTO 28003KT 250V320 9999NDV NSC 13/12 Q1016
2020/07/13 12:50 EEPU 131250Z 03005KT 360V090 9999 BKN035 18/16 Q1015
2020/07/13 23:20 EETN 132320Z 23007KT 9999 FEW023CB 12/11 Q1014
2020/07/13 22:50 EETU 132250Z AUTO 25005KT 9999 NCD 10/09 Q1015
   RIGA AIRPORT     EVRA               56 55N  023 58E   10   X     T          6 LV
   LIEPAJA INTL     EVLA        26406  56 31N  021 06E    4   X                8 LV
   VENTPILS         EVVA               57 21N  021 33E    6   X                8 LV
   KAUNAS           EYKA               54 54N  023 55E   77   X     T          6 LT
   PALANGA INTL     EYPA               55 55N  021 03E   10   X                6 LT
   SIAULIAI INTL    EYSA               55 54N  023 24E  135   X     T          6 LT
   VILNIUS INTL     EYVI        26730  54 38N  025 17E  197   X     T          6 LT
   KARDLA           EEKA        26116  58 59N  022 50E    4   X                8 EE
   KURESSAARE       EEKE               58 14N  022 31E    4   X                8 EE
   PARNU            EEPU               58 25N  024 28E   14   X                8 EE
   TALLINN          EETN        26038  59 24N  024 49E   40   X     T          8 EE
   TARTU            EETU               58 19N  026 41E   67   X                8 EE